Terminal Aerodrome Forecast
Issued by NWS

Home | Current Version | Previous Version | Text Only | Print | Product List | Glossary On
Versions: 1 2 3 4 5 6 7 8 9 10 11 12 13 14 15 16 17 18 19 20 21 22 23 24 25 26 27 28
000
FTUS46 KEKA 192037 CCA
TAFCEC
TAF COR
KCEC 192037Z 1921/2018 18018G25KT P6SM -RA SCT025 OVC030
      WS020/20048KT
      TEMPO 1921/1924 18021G33KT 3SM RA BR SCT004 OVC012
     FM200000 19014G22KT 3SM -RA BR SCT007 OVC012
     FM200200 18014KT 3SM -SHRA BR SCT005 OVC015
     FM200600 18010G20KT P6SM -SHRA VCTS BKN030CB=

USA.gov is the U.S. government's official web portal to all federal, state and local government web resources and services.